Latest Weather Observations for North Head

IDN60801

Issued at 12:35 pm EST Tuesday 16 September 2014 (issued every 30 minutes, with the page automatically refreshed every 10 minutes)

About weather observations | Map of weather stations | Latest weather observations for NSW | Other Formats
Station Details ID: 066197 Name: NORTH HEAD Lat: -33.82 Lon: 151.30 Height: 90.0 m
Data from the previous 72 hours. | See also: Recent months for locations in New South Wales
Date/Time
EST
Temp
°C
App
Temp
°C
Dew
Point
Rel
Hum
%
Delta-T
°C
Wind Press
QNH
hPa
Press
MSL
hPa
Rain
since 9 am
mm
Dir
 
Spd
km/h
Gust
km/h
Spd
kts
Gust
kts
16/12:30pm - - - - - NNE 24 35 13 19 - - -
16/12:00pm - - - - - NNE 19 33 10 18 - - -
16/11:30am - - - - - NNE 22 33 12 18 - - -
16/11:00am - - - - - N 20 33 11 18 - - -
16/10:30am - - - - - N 13 24 7 13 - - -
16/10:00am - - - - - NNE 22 39 12 21 - - -
16/09:30am - - - - - NE 22 37 12 20 - - -
16/09:00am - - - - - NE 20 30 11 16 - - -
16/08:30am - - - - - N 17 30 9 16 - - -
16/08:00am - - - - - NNE 15 30 8 16 - - -
16/07:30am - - - - - NNE 20 33 11 18 - - -
16/07:00am - - - - - NNE 20 30 11 16 - - -
16/06:30am - - - - - N 15 26 8 14 - - -
16/06:00am - - - - - NNE 22 33 12 18 - - -
16/05:30am - - - - - NNE 20 33 11 18 - - -
16/05:00am - - - - - NW 9 13 5 7 - - -
16/04:30am - - - - - N 11 20 6 11 - - -
16/04:00am - - - - - NNE 17 24 9 13 - - -
16/03:30am - - - - - NE 20 32 11 17 - - -
16/03:00am - - - - - NE 20 33 11 18 - - -
16/02:30am - - - - - NE 19 37 10 20 - - -
16/02:00am - - - - - NE 20 32 11 17 - - -
16/01:30am - - - - - NNE 20 33 11 18 - - -
16/01:00am - - - - - NE 15 24 8 13 - - -
16/12:30am - - - - - N 6 9 3 5 - - -
16/12:00am - - - - - N 13 24 7 13 - - -
 
Date/Time
EST
Temp
°C
App
Temp
°C
Dew
Point
Rel
Hum
%
Delta-T
°C
Wind Press
QNH
hPa
Press
MSL
hPa
Rain
since 9 am
mm
Dir
 
Spd
km/h
Gust
km/h
Spd
kts
Gust
kts
15/11:30pm - - - - - NE 17 28 9 15 - - -
15/11:00pm - - - - - NE 17 30 9 16 - - -
15/10:30pm - - - - - NE 19 28 10 15 - - -
15/10:00pm - - - - - NNE 17 30 9 16 - - -
15/09:30pm - - - - - NE 19 26 10 14 - - -
15/09:00pm - - - - - NE 19 26 10 14 - - -
15/08:30pm - - - - - NE 19 30 10 16 - - -
15/08:00pm - - - - - NE 19 30 10 16 - - -
15/07:30pm - - - - - ENE 17 30 9 16 - - -
15/07:00pm - - - - - ENE 19 26 10 14 - - -
15/06:30pm - - - - - ENE 19 26 10 14 - - -
15/06:00pm - - - - - ENE 17 26 9 14 - - -
15/05:30pm - - - - - ENE 17 26 9 14 - - -
15/05:00pm - - - - - ENE 17 26 9 14 - - -
15/04:30pm - - - - - ENE 13 24 7 13 - - -
15/04:00pm - - - - - ENE 15 22 8 12 - - -
15/03:30pm - - - - - ENE 13 20 7 11 - - -
15/03:00pm - - - - - ENE 13 20 7 11 - - -
15/02:30pm - - - - - ENE 15 22 8 12 - - -
15/02:00pm - - - - - E 13 20 7 11 - - -
15/01:30pm - - - - - E 15 22 8 12 - - -
15/01:00pm - - - - - E 13 19 7 10 - - -
15/12:30pm - - - - - E 13 19 7 10 - - -
15/12:00pm - - - - - E 11 19 6 10 - - -
15/11:30am - - - - - E 11 15 6 8 - - -
15/11:00am - - - - - E 9 15 5 8 - - -
15/10:30am - - - - - E 9 13 5 7 - - -
15/10:00am - - - - - SE 7 11 4 6 - - -
15/09:30am - - - - - WSW 6 7 3 4 - - -
15/09:00am - - - - - WSW 7 9 4 5 - - -
15/08:30am - - - - - W 9 15 5 8 - - -
15/08:00am - - - - - W 9 13 5 7 - - -
15/07:30am - - - - - W 9 13 5 7 - - -
15/07:00am - - - - - W 9 11 5 6 - - -
15/06:30am - - - - - W 9 13 5 7 - - -
15/06:00am - - - - - W 9 9 5 5 - - -
15/05:30am - - - - - W 7 11 4 6 - - -
15/05:00am - - - - - W 9 11 5 6 - - -
15/04:30am - - - - - W 9 11 5 6 - - -
15/04:00am - - - - - W 9 13 5 7 - - -
15/03:30am - - - - - W 9 9 5 5 - - -
15/03:00am - - - - - W 9 11 5 6 - - -
15/02:30am - - - - - W 7 9 4 5 - - -
15/02:00am - - - - - W 6 7 3 4 - - -
15/01:30am - - - - - WNW 6 9 3 5 - - -
15/01:00am - - - - - W 9 13 5 7 - - -
15/12:30am - - - - - W 11 15 6 8 - - -
15/12:00am - - - - - W 9 11 5 6 - - -
 
Date/Time
EST
Temp
°C
App
Temp
°C
Dew
Point
Rel
Hum
%
Delta-T
°C
Wind Press
QNH
hPa
Press
MSL
hPa
Rain
since 9 am
mm
Dir
 
Spd
km/h
Gust
km/h
Spd
kts
Gust
kts
14/11:30pm - - - - - SW 6 9 3 5 - - -
14/11:00pm - - - - - SW 7 15 4 8 - - -
14/10:30pm - - - - - W 7 9 4 5 - - -
14/10:00pm - - - - - S 9 17 5 9 - - -
14/09:30pm - - - - - S 15 20 8 11 - - -
14/09:00pm - - - - - S 17 22 9 12 - - -
14/08:30pm - - - - - SSE 22 30 12 16 - - -
14/08:00pm - - - - - S 19 26 10 14 - - -
14/07:30pm - - - - - SSE 17 24 9 13 - - -
14/07:00pm - - - - - SSE 19 28 10 15 - - -
14/06:30pm - - - - - SSE 19 26 10 14 - - -
14/06:00pm - - - - - SSE 20 30 11 16 - - -
14/05:30pm - - - - - SSE 22 30 12 16 - - -
14/05:00pm - - - - - SSE 20 30 11 16 - - -
14/04:30pm - - - - - SE 9 15 5 8 - - -
14/04:00pm - - - - - SE 9 15 5 8 - - -
14/03:30pm - - - - - E 9 13 5 7 - - -
14/03:00pm - - - - - ENE 9 15 5 8 - - -
14/02:30pm - - - - - ENE 11 15 6 8 - - -
14/02:00pm - - - - - ENE 13 19 7 10 - - -
14/01:30pm - - - - - ENE 11 17 6 9 - - -
14/01:00pm - - - - - ENE 9 13 5 7 - - -
14/12:30pm - - - - - ENE 9 13 5 7 - - -
14/12:00pm - - - - - E 7 9 4 5 - - -
14/11:30am - - - - - NE 9 15 5 8 - - -
14/11:00am - - - - - NE 13 17 7 9 - - -
14/10:30am - - - - - NE 7 11 4 6 - - -
14/10:00am - - - - - N 6 9 3 5 - - -
14/09:30am - - - - - NNW 6 9 3 5 - - -
14/09:00am - - - - - W 6 9 3 5 - - -
14/08:30am - - - - - NW 6 7 3 4 - - -
14/08:00am - - - - - NW 6 7 3 4 - - -
14/07:30am - - - - - NW 2 4 1 2 - - -
14/07:00am - - - - - WNW 4 6 2 3 - - -
14/06:30am - - - - - W 7 7 4 4 - - -
14/06:00am - - - - - W 7 7 4 4 - - -
14/05:30am - - - - - WNW 7 7 4 4 - - -
14/05:00am - - - - - NW 6 7 3 4 - - -
14/04:30am - - - - - NW 6 7 3 4 - - -
14/04:00am - - - - - NNW 7 9 4 5 - - -
14/03:30am - - - - - NNW 9 11 5 6 - - -
14/03:00am - - - - - NNW 9 13 5 7 - - -
14/02:30am - - - - - NNW 9 13 5 7 - - -
14/02:00am - - - - - N 9 13 5 7 - - -
14/01:30am - - - - - N 11 15 6 8 - - -
14/01:00am - - - - - N 11 17 6 9 - - -
14/12:30am - - - - - N 13 19 7 10 - - -
14/12:00am - - - - - N 11 19 6 10 - - -
 
Date/Time
EST
Temp
°C
App
Temp
°C
Dew
Point
Rel
Hum
%
Delta-T
°C
Wind Press
QNH
hPa
Press
MSL
hPa
Rain
since 9 am
mm
Dir
 
Spd
km/h
Gust
km/h
Spd
kts
Gust
kts
13/11:30pm - - - - - N 11 19 6 10 - - -
13/11:00pm - - - - - N 9 17 5 9 - - -
13/10:30pm - - - - - N 9 13 5 7 - - -
13/10:00pm - - - - - N 9 15 5 8 - - -
13/09:30pm - - - - - N 13 22 7 12 - - -
13/09:00pm - - - - - NNE 17 26 9 14 - - -
13/08:30pm - - - - - NNE 15 22 8 12 - - -
13/08:00pm - - - - - NE 19 26 10 14 - - -
13/07:30pm - - - - - NE 19 28 10 15 - - -
13/07:00pm - - - - - NE 15 22 8 12 - - -
13/06:30pm - - - - - NE 17 22 9 12 - - -
13/06:00pm - - - - - NE 17 26 9 14 - - -
13/05:30pm - - - - - NE 17 24 9 13 - - -
13/05:00pm - - - - - NE 15 20 8 11 - - -
13/04:30pm - - - - - ENE 15 22 8 12 - - -
13/04:00pm - - - - - ENE 15 22 8 12 - - -
13/03:30pm - - - - - ENE 11 19 6 10 - - -
13/03:00pm - - - - - E 13 19 7 10 - - -
13/02:30pm - - - - - E 13 22 7 12 - - -
13/02:00pm - - - - - E 15 19 8 10 - - -
13/01:30pm - - - - - E 13 19 7 10 - - -
13/01:00pm - - - - - ESE 13 19 7 10 - - -

Other Formats:

Comma delimited format used in spreadsheet applications
http://www.bom.gov.au/fwo/IDN60801/IDN60801.95768.axf

JavaScript Object Notation format (JSON) in row-major order
http://www.bom.gov.au/fwo/IDN60801/IDN60801.95768.json